Time;durP1;ratioP1;P1;durP2;ratioP2;P2;SDS_P1;SDS_P2;PMS_P1;PMS_P2;Temp;Humidity;BMP_temperature;BMP_pressure;BME280_temperature;BME280_humidity;BME280_pressure;Samples;Min_cycle;Max_cycle;Signal;HPM_P1;HPM_P2
2024/02/12 00:01:29;;;;;;;26.73;15.83;;;;;7.40;99272.00;;;;10463022;28;20226;-87
2024/02/12 00:06:35;;;;;;;31.30;15.80;;;;;7.40;99276.00;;;;10438742;28;20228;-87
2024/02/12 00:11:36;;;;;;;30.73;16.60;;;;;7.30;99282.00;;;;10426866;28;20221;-86
2024/02/12 00:16:40;;;;;;;31.30;16.80;;;;;7.30;99290.00;;;;10436660;28;20244;-78
2024/02/12 00:21:45;;;;;;;29.83;16.40;;;;;7.30;99289.00;;;;10454431;28;20307;-82
2024/02/12 00:26:46;;;;;;;32.10;17.70;;;;;7.30;99290.00;;;;10439519;28;20242;-81
2024/02/12 00:31:47;;;;;;;35.17;16.97;;;;;7.30;99294.00;;;;10440403;28;21012;-79
2024/02/12 00:36:49;;;;;;;35.77;16.73;;;;;7.30;99309.00;;;;10424519;28;20216;-79
2024/02/12 00:41:52;;;;;;;31.73;15.80;;;;;7.20;99305.00;;;;10457980;28;20887;-79
2024/02/12 00:46:54;;;;;;;28.90;16.53;;;;;7.20;99304.00;;;;10442513;28;20320;-79
2024/02/12 00:51:56;;;;;;;29.57;16.70;;;;;7.20;99309.00;;;;10453608;28;20225;-80
2024/02/12 00:56:57;;;;;;;36.40;17.20;;;;;7.20;99299.00;;;;10444583;28;20241;-80
2024/02/12 01:01:58;;;;;;;31.60;16.87;;;;;7.20;99312.00;;;;10461286;28;20249;-79
2024/02/12 01:06:59;;;;;;;30.07;15.70;;;;;7.10;99311.00;;;;10451620;28;20235;-79
2024/02/12 01:12:01;;;;;;;29.70;16.93;;;;;7.10;99330.00;;;;10449484;28;20276;-82
2024/02/12 01:17:06;;;;;;;27.17;16.50;;;;;7.00;99331.00;;;;10448770;28;20221;-79
2024/02/12 01:22:08;;;;;;;28.40;16.70;;;;;7.00;99343.00;;;;10471386;28;20221;-78
2024/02/12 01:27:17;;;;;;;32.63;17.77;;;;;6.90;99336.00;;;;10455833;28;20221;-79
2024/02/12 01:32:18;;;;;;;35.20;17.80;;;;;6.80;99345.00;;;;10444712;28;22292;-78
2024/02/12 01:37:22;;;;;;;30.93;18.40;;;;;6.70;99336.00;;;;10451017;28;20244;-78
2024/02/12 01:42:23;;;;;;;32.97;18.33;;;;;6.50;99352.00;;;;10448870;28;20760;-79
2024/02/12 01:47:25;;;;;;;31.33;18.67;;;;;6.30;99353.00;;;;10454141;28;20220;-78
2024/02/12 01:52:28;;;;;;;37.23;20.03;;;;;6.30;99365.00;;;;10418616;28;20233;-79
2024/02/12 01:57:30;;;;;;;36.80;20.47;;;;;6.30;99366.00;;;;10446300;28;20854;-78
2024/02/12 02:02:33;;;;;;;39.63;21.90;;;;;6.30;99363.00;;;;10461480;28;20217;-83
2024/02/12 02:07:36;;;;;;;35.87;21.77;;;;;6.40;99374.00;;;;10445653;28;20683;-88
2024/02/12 02:12:37;;;;;;;40.10;23.27;;;;;6.50;99375.00;;;;10468601;28;20299;-86
2024/02/12 02:17:54;;;;;;;38.67;23.87;;;;;6.60;99375.00;;;;10452857;28;20295;-86
2024/02/12 02:22:56;;;;;;;36.07;22.13;;;;;6.60;99381.00;;;;10434534;28;20227;-85
2024/02/12 02:27:58;;;;;;;39.20;23.03;;;;;6.60;99384.00;;;;10438585;28;20309;-86
2024/02/12 02:33:00;;;;;;;45.17;23.50;;;;;6.70;99388.00;;;;10471143;28;20209;-83
2024/02/12 02:38:02;;;;;;;36.97;23.23;;;;;6.70;99401.00;;;;10469476;28;20221;-87
2024/02/12 02:43:05;;;;;;;38.90;23.40;;;;;6.80;99399.00;;;;10430865;28;20213;-87
2024/02/12 02:48:06;;;;;;;41.47;21.87;;;;;6.90;99395.00;;;;10415642;28;21058;-85
2024/02/12 02:53:08;;;;;;;47.57;24.17;;;;;7.00;99403.00;;;;10447151;28;20684;-85
2024/02/12 02:58:09;;;;;;;44.13;23.00;;;;;7.00;99405.00;;;;10425597;28;20223;-87
2024/02/12 03:03:11;;;;;;;41.93;22.77;;;;;7.10;99407.00;;;;10468284;28;20221;-87
2024/02/12 03:08:14;;;;;;;39.03;21.63;;;;;7.10;99403.00;;;;10439821;28;20218;-88
2024/02/12 03:13:15;;;;;;;36.00;21.47;;;;;7.10;99407.00;;;;10482306;28;20244;-87
2024/02/12 03:18:20;;;;;;;36.60;21.83;;;;;7.10;99427.00;;;;10427161;28;20213;-84
2024/02/12 03:23:21;;;;;;;41.30;22.13;;;;;7.10;99426.00;;;;10440957;28;20686;-81
2024/02/12 03:28:22;;;;;;;39.03;22.10;;;;;7.10;99419.00;;;;10419910;28;20296;-84
2024/02/12 03:33:23;;;;;;;36.73;20.60;;;;;7.20;99429.00;;;;10462112;28;20220;-83
2024/02/12 03:38:25;;;;;;;36.13;20.30;;;;;7.20;99433.00;;;;10434971;28;20578;-83
2024/02/12 03:43:27;;;;;;;34.33;18.77;;;;;7.20;99427.00;;;;10450264;28;20224;-84
2024/02/12 04:04:29;;;;;;;30.90;15.73;;;;;7.00;99443.00;;;;10500891;28;20484;-85
2024/02/12 04:09:32;;;;;;;20.90;13.40;;;;;7.00;99451.00;;;;10425948;28;20228;-83
2024/02/12 04:14:33;;;;;;;22.33;12.03;;;;;7.00;99458.00;;;;10432206;28;20214;-82
2024/02/12 04:19:38;;;;;;;20.93;12.30;;;;;7.00;99464.00;;;;10434405;28;20237;-82
2024/02/12 04:24:39;;;;;;;26.93;13.10;;;;;7.00;99475.00;;;;10463702;28;20217;-79
2024/02/12 04:29:41;;;;;;;22.10;12.07;;;;;7.00;99481.00;;;;10428593;28;20304;-78
2024/02/12 04:34:42;;;;;;;25.43;11.70;;;;;7.00;99483.00;;;;10431921;28;20232;-77
2024/02/12 04:39:44;;;;;;;21.47;9.97;;;;;7.00;99492.00;;;;10450052;28;20217;-77
2024/02/12 04:44:46;;;;;;;19.07;10.37;;;;;7.00;99497.00;;;;10444122;28;20217;-78
2024/02/12 04:49:47;;;;;;;18.57;9.67;;;;;7.00;99511.00;;;;10448681;28;20316;-78
2024/02/12 04:54:48;;;;;;;20.40;10.13;;;;;7.10;99514.00;;;;10445977;28;20259;-76
2024/02/12 04:59:49;;;;;;;20.60;9.43;;;;;7.10;99518.00;;;;10438225;28;20574;-76
2024/02/12 05:04:50;;;;;;;23.10;9.83;;;;;7.10;99518.00;;;;10447485;28;20327;-76
2024/02/12 05:09:52;;;;;;;25.63;10.60;;;;;7.10;99517.00;;;;10431124;28;20316;-79
2024/02/12 05:14:53;;;;;;;26.40;8.97;;;;;7.00;99515.00;;;;10446538;28;20228;-77
2024/02/12 05:25:14;;;;;;;23.93;10.03;;;;;7.10;99526.00;;;;10447358;28;20755;-77
2024/02/12 05:30:15;;;;;;;22.97;10.83;;;;;7.10;99534.00;;;;10447951;28;20220;-76
2024/02/12 05:35:17;;;;;;;27.20;11.77;;;;;7.20;99539.00;;;;10487327;28;20240;-82
2024/02/12 05:40:20;;;;;;;23.17;10.57;;;;;7.20;99528.00;;;;10441035;28;20217;-82
2024/02/12 05:45:21;;;;;;;19.47;10.43;;;;;7.20;99522.00;;;;10429577;28;20241;-82
2024/02/12 05:50:29;;;;;;;28.00;11.53;;;;;7.10;99525.00;;;;10427051;28;20233;-82
2024/02/12 05:55:31;;;;;;;23.17;10.60;;;;;7.00;99522.00;;;;10450671;28;20225;-82
2024/02/12 06:00:32;;;;;;;27.17;10.83;;;;;6.90;99534.00;;;;10438725;28;20806;-82
2024/02/12 06:05:33;;;;;;;20.83;8.87;;;;;6.80;99535.00;;;;10438332;28;20228;-82
2024/02/12 06:10:35;;;;;;;22.70;9.43;;;;;6.70;99535.00;;;;10432304;28;20221;-82
2024/02/12 06:15:36;;;;;;;24.43;9.20;;;;;6.60;99551.00;;;;10437772;28;20224;-82
2024/02/12 06:20:37;;;;;;;20.00;7.93;;;;;6.60;99557.00;;;;10468714;28;20247;-82
2024/02/12 06:25:38;;;;;;;21.07;5.43;;;;;6.50;99556.00;;;;10462140;28;20217;-81
2024/02/12 06:30:40;;;;;;;17.77;5.80;;;;;6.40;99564.00;;;;10426380;28;20246;-82
2024/02/12 06:35:41;;;;;;;20.83;3.87;;;;;6.20;99563.00;;;;10425530;28;20297;-82
2024/02/12 06:40:43;;;;;;;19.60;5.03;;;;;6.10;99581.00;;;;10467535;28;20277;-81
2024/02/12 06:45:44;;;;;;;13.27;4.57;;;;;6.00;99579.00;;;;10452272;28;20222;-77
2024/02/12 06:50:46;;;;;;;18.27;4.90;;;;;5.90;99601.00;;;;10466969;28;20221;-78
2024/02/12 06:56:08;;;;;;;13.30;3.73;;;;;5.80;99600.00;;;;10440519;28;20236;-78
2024/02/12 07:01:12;;;;;;;10.13;4.13;;;;;5.70;99612.00;;;;10435325;28;20689;-76
2024/02/12 07:06:13;;;;;;;18.37;5.03;;;;;5.70;99628.00;;;;10448940;28;20228;-76
2024/02/12 07:11:15;;;;;;;23.70;4.97;;;;;5.80;99643.00;;;;10458234;28;20228;-77
2024/02/12 07:16:19;;;;;;;35.27;7.30;;;;;5.80;99650.00;;;;10431357;28;20228;-76
2024/02/12 07:21:20;;;;;;;20.97;6.60;;;;;5.90;99650.00;;;;10417832;28;20571;-80
2024/02/12 07:26:21;;;;;;;21.60;7.30;;;;;5.90;99658.00;;;;10426949;28;20225;-76
2024/02/12 07:31:23;;;;;;;26.87;6.77;;;;;6.00;99662.00;;;;10427899;28;20742;-78
2024/02/12 07:36:24;;;;;;;22.50;8.80;;;;;6.00;99667.00;;;;10433430;28;20626;-77
2024/02/12 07:41:26;;;;;;;17.77;6.93;;;;;6.00;99681.00;;;;10478220;28;20228;-80
2024/02/12 07:46:28;;;;;;;16.03;7.13;;;;;6.10;99690.00;;;;10445026;28;20235;-77
2024/02/12 07:51:29;;;;;;;22.07;8.07;;;;;6.20;99696.00;;;;10457114;28;20264;-77
2024/02/12 07:56:30;;;;;;;21.53;7.67;;;;;6.30;99704.00;;;;10440165;28;20246;-87
2024/02/12 08:01:31;;;;;;;23.40;7.27;;;;;6.30;99715.00;;;;10459427;28;20296;-85
2024/02/12 08:06:33;;;;;;;17.70;7.13;;;;;6.30;99724.00;;;;10443099;28;20236;-86
2024/02/12 08:11:34;;;;;;;18.13;6.63;;;;;6.50;99726.00;;;;10435036;28;20307;-85
2024/02/12 08:16:35;;;;;;;16.33;6.13;;;;;6.50;99735.00;;;;10452076;28;20275;-83
2024/02/12 08:21:36;;;;;;;15.83;6.40;;;;;6.90;99738.00;;;;10435090;28;20229;-85
2024/02/12 08:26:40;;;;;;;27.87;7.13;;;;;7.00;99731.00;;;;10435431;28;20667;-83
2024/02/12 08:31:41;;;;;;;16.93;6.53;;;;;7.20;99739.00;;;;10428318;28;20228;-85
2024/02/12 08:36:45;;;;;;;18.67;5.87;;;;;7.30;99755.00;;;;10450310;28;20229;-83
2024/02/12 08:41:46;;;;;;;21.63;6.50;;;;;7.40;99753.00;;;;10463294;28;20275;-85
2024/02/12 08:46:47;;;;;;;18.97;5.80;;;;;7.60;99761.00;;;;10466087;28;20243;-85
2024/02/12 08:51:48;;;;;;;18.70;6.93;;;;;7.90;99759.00;;;;10430027;28;20797;-85
2024/02/12 08:56:49;;;;;;;14.77;5.43;;;;;8.30;99761.00;;;;10428160;28;20241;-83
2024/02/12 09:01:54;;;;;;;20.37;4.57;;;;;8.50;99776.00;;;;10433509;28;20331;-84
2024/02/12 09:06:55;;;;;;;14.57;4.23;;;;;8.20;99784.00;;;;10436024;28;20237;-82
2024/02/12 09:11:59;;;;;;;9.93;4.03;;;;;8.30;99797.00;;;;10443357;28;20245;-82
2024/02/12 09:17:01;;;;;;;15.87;4.63;;;;;8.40;99802.00;;;;10440905;28;20197;-82
2024/02/12 09:22:03;;;;;;;18.20;5.10;;;;;8.60;99822.00;;;;10493397;28;20235;-81
2024/02/12 09:27:05;;;;;;;10.23;4.77;;;;;8.50;99820.00;;;;10432692;28;20751;-82
2024/02/12 09:32:07;;;;;;;11.93;5.83;;;;;8.70;99826.00;;;;10417136;28;20294;-82
2024/02/12 09:37:10;;;;;;;20.33;6.20;;;;;8.90;99832.00;;;;10440538;28;20221;-82
2024/02/12 09:42:13;;;;;;;17.53;5.33;;;;;8.50;99828.00;;;;10436885;28;20237;-81
2024/02/12 09:47:18;;;;;;;13.10;4.90;;;;;8.80;99847.00;;;;10436898;28;20223;-81
2024/02/12 09:52:20;;;;;;;11.17;4.73;;;;;9.50;99858.00;;;;10440992;28;20247;-80
2024/02/12 09:57:21;;;;;;;11.57;4.27;;;;;9.80;99857.00;;;;10426028;28;20248;-81
2024/02/12 10:02:25;;;;;;;17.90;4.97;;;;;10.00;99870.00;;;;10444213;28;20240;-81
2024/02/12 10:07:47;;;;;;;10.37;3.67;;;;;10.00;99876.00;;;;10447241;28;20228;-81
2024/02/12 10:13:09;;;;;;;15.57;4.73;;;;;10.30;99881.00;;;;10426455;28;20214;-81
2024/02/12 10:18:31;;;;;;;11.83;3.90;;;;;10.80;99902.00;;;;10455422;28;20252;-78
2024/02/12 10:23:52;;;;;;;11.77;4.00;;;;;10.80;99898.00;;;;10424268;28;20217;-76
2024/02/12 10:29:14;;;;;;;8.17;3.43;;;;;11.50;99905.00;;;;10450567;28;20305;-77
2024/02/12 10:34:37;;;;;;;9.73;3.53;;;;;12.00;99910.00;;;;10445381;28;20229;-80
2024/02/12 10:40:12;;;;;;;12.50;3.95;;;;;12.30;99922.00;;;;10449382;28;20221;-77
2024/02/12 10:45:34;;;;;;;8.40;3.33;;;;;11.90;99931.00;;;;10452881;28;20860;-79
2024/02/12 10:50:56;;;;;;;10.25;3.15;;;;;11.40;99938.00;;;;10437974;28;20699;-78
2024/02/12 10:56:19;;;;;;;16.10;3.50;;;;;11.20;99950.00;;;;10457871;28;20725;-80
2024/02/12 11:01:22;;;;;;;13.05;3.63;;;;;11.40;99951.00;;;;10421115;28;20255;-80
2024/02/12 11:06:26;;;;;;;12.87;3.13;;;;;11.10;99949.00;;;;10436049;28;20239;-78
2024/02/12 11:11:30;;;;;;;6.40;2.80;;;;;11.20;99960.00;;;;10445840;28;20225;-80
2024/02/12 11:16:32;;;;;;;8.73;2.90;;;;;10.90;99960.00;;;;10424079;28;20931;-79
2024/02/12 11:21:38;;;;;;;14.90;3.27;;;;;10.90;99963.00;;;;10436206;28;20217;-77
2024/02/12 11:26:49;;;;;;;12.17;2.67;;;;;10.90;99960.00;;;;10434946;28;20269;-79
2024/02/12 11:31:53;;;;;;;8.77;2.90;;;;;10.80;99976.00;;;;10417672;28;20229;-79
2024/02/12 11:36:58;;;;;;;8.80;2.60;;;;;11.00;99974.00;;;;10435533;28;20210;-78
2024/02/12 11:42:00;;;;;;;9.33;2.70;;;;;11.10;99984.00;;;;10452576;28;20221;-79
2024/02/12 11:47:04;;;;;;;12.50;2.90;;;;;12.20;99968.00;;;;10427981;28;20226;-79
2024/02/12 11:52:06;;;;;;;11.32;2.78;;;;;12.90;99975.00;;;;10411791;28;20245;-80
2024/02/12 11:57:07;;;;;;;5.70;2.28;;;;;13.40;99968.00;;;;10418495;28;20206;-80
2024/02/12 12:02:09;;;;;;;9.77;2.90;;;;;13.70;99968.00;;;;10441721;28;20648;-80
2024/02/12 12:07:15;;;;;;;10.00;2.65;;;;;12.90;99983.00;;;;10379932;28;20849;-79
2024/02/12 12:12:23;;;;;;;10.23;2.60;;;;;12.70;99988.00;;;;10395714;28;20287;-79
2024/02/12 12:17:25;;;;;;;9.02;2.20;;;;;13.40;99984.00;;;;10403453;28;20222;-79
2024/02/12 12:22:36;;;;;;;7.25;1.73;;;;;13.70;99991.00;;;;10391595;28;20864;-79
2024/02/12 12:27:38;;;;;;;12.68;2.28;;;;;12.50;99983.00;;;;10369714;28;20392;-80
2024/02/12 12:32:40;;;;;;;6.93;1.63;;;;;11.20;99989.00;;;;10370046;28;20233;-79
2024/02/12 12:37:43;;;;;;;9.63;1.80;;;;;10.60;99997.00;;;;10355415;28;20880;-80
2024/02/12 12:42:46;;;;;;;5.50;1.43;;;;;10.80;100014.00;;;;10369090;28;20907;-80
2024/02/12 12:47:48;;;;;;;5.00;1.80;;;;;11.00;100008.00;;;;10393807;28;20261;-80
2024/02/12 12:52:49;;;;;;;8.15;1.65;;;;;11.70;100010.00;;;;10364042;28;20321;-81
2024/02/12 12:57:52;;;;;;;6.47;1.57;;;;;12.00;100003.00;;;;10384812;28;20276;-80
2024/02/12 13:02:53;;;;;;;4.55;1.42;;;;;12.50;100012.00;;;;10360277;28;20987;-80
2024/02/12 13:07:57;;;;;;;3.40;1.23;;;;;12.40;100014.00;;;;10382018;28;20529;-80
2024/02/12 13:13:20;;;;;;;6.07;1.53;;;;;11.00;100025.00;;;;10392641;28;20725;-82
2024/02/12 13:18:26;;;;;;;4.83;1.50;;;;;10.30;100032.00;;;;10364618;28;20310;-80
2024/02/12 13:23:28;;;;;;;4.20;1.00;;;;;10.00;100034.00;;;;10376487;28;20884;-79
2024/02/12 13:28:29;;;;;;;7.40;1.60;;;;;10.00;100050.00;;;;10408709;28;20879;-79
2024/02/12 13:33:30;;;;;;;4.97;1.30;;;;;10.20;100041.00;;;;10388032;28;20305;-79
2024/02/12 13:38:32;;;;;;;4.37;1.27;;;;;10.50;100055.00;;;;10369441;28;20988;-79
2024/02/12 13:43:33;;;;;;;6.37;1.37;;;;;11.50;100049.00;;;;10382552;28;20232;-80
2024/02/12 13:48:34;;;;;;;5.43;1.50;;;;;11.90;100040.00;;;;10374749;28;20292;-84
2024/02/12 13:53:35;;;;;;;3.50;1.20;;;;;12.00;100047.00;;;;10384719;28;20223;-87
2024/02/12 13:58:37;;;;;;;2.87;0.90;;;;;12.60;100041.00;;;;10358463;28;20856;-86
2024/02/12 14:03:39;;;;;;;6.67;1.73;;;;;11.50;100052.00;;;;10376370;28;20265;-87
2024/02/12 14:08:40;;;;;;;8.13;1.37;;;;;10.80;100066.00;;;;10388059;28;20214;-86
2024/02/12 14:13:43;;;;;;;2.73;1.00;;;;;10.80;100080.00;;;;10398505;28;20272;-84
2024/02/12 14:18:44;;;;;;;8.20;1.40;;;;;10.60;100090.00;;;;10400092;28;20225;-83
2024/02/12 14:23:46;;;;;;;2.70;1.40;;;;;10.40;100092.00;;;;10393607;28;21547;-87
2024/02/12 14:28:47;;;;;;;7.80;1.37;;;;;10.40;100109.00;;;;10365018;28;20237;-88
2024/02/12 14:33:48;;;;;;;5.70;1.83;;;;;10.50;100118.00;;;;10401299;28;20230;-84
2024/02/12 14:38:50;;;;;;;4.03;1.23;;;;;10.40;100125.00;;;;10402616;28;20226;-85
2024/02/12 14:43:53;;;;;;;8.47;1.50;;;;;10.20;100138.00;;;;10371423;28;20223;-87
2024/02/12 14:48:55;;;;;;;4.63;1.73;;;;;10.10;100142.00;;;;10355636;28;21130;-86
2024/02/12 14:53:56;;;;;;;3.67;1.00;;;;;10.00;100153.00;;;;10354801;28;20284;-81
2024/02/12 14:58:57;;;;;;;2.30;0.90;;;;;9.80;100156.00;;;;10398663;28;20226;-80
2024/02/12 15:03:58;;;;;;;3.77;1.27;;;;;9.70;100173.00;;;;10369086;28;20880;-79
2024/02/12 15:09:00;;;;;;;4.00;0.97;;;;;11.00;100167.00;;;;10382561;28;20253;-79
2024/02/12 15:14:02;;;;;;;3.37;1.13;;;;;13.20;100121.00;;;;10394796;28;20222;-79
2024/02/12 15:19:03;;;;;;;6.53;1.60;;;;;12.00;100172.00;;;;10376363;28;20225;-79
2024/02/12 15:24:05;;;;;;;3.07;1.27;;;;;11.80;100169.00;;;;10393180;28;20226;-79
2024/02/12 15:29:06;;;;;;;3.50;1.70;;;;;11.00;100142.00;;;;10372952;28;20864;-79
2024/02/12 15:34:09;;;;;;;1.80;1.40;;;;;11.80;100159.00;;;;10399616;28;20210;-79
2024/02/12 15:39:11;;;;;;;4.47;1.90;;;;;10.60;100194.00;;;;10371330;28;20221;-80
2024/02/12 15:44:13;;;;;;;4.07;1.40;;;;;10.00;100194.00;;;;10404811;28;20222;-80
2024/02/12 15:49:14;;;;;;;6.20;1.57;;;;;9.60;100219.00;;;;10393517;28;20222;-80
2024/02/12 15:54:16;;;;;;;2.73;1.60;;;;;9.20;100234.00;;;;10396841;28;20242;-79
2024/02/12 15:59:18;;;;;;;9.93;2.10;;;;;9.00;100253.00;;;;10398835;28;20229;-79
2024/02/12 16:04:24;;;;;;;8.00;2.27;;;;;8.80;100272.00;;;;10389249;28;20241;-83
2024/02/12 16:09:25;;;;;;;5.90;2.07;;;;;8.70;100272.00;;;;10373377;28;20256;-86
2024/02/12 16:14:27;;;;;;;5.73;2.10;;;;;8.60;100288.00;;;;10397621;28;20295;-86
2024/02/12 16:19:30;;;;;;;5.20;2.20;;;;;8.40;100300.00;;;;10385552;28;20217;-84
2024/02/12 16:24:33;;;;;;;4.07;2.30;;;;;8.20;100309.00;;;;10380932;28;20222;-86
2024/02/12 16:29:34;;;;;;;5.77;3.03;;;;;8.00;100332.00;;;;10415887;28;20246;-82
2024/02/12 16:34:35;;;;;;;7.70;2.20;;;;;7.90;100335.00;;;;10395892;28;20636;-85
2024/02/12 16:39:37;;;;;;;4.53;2.40;;;;;7.80;100352.00;;;;10384116;28;20214;-85
2024/02/12 16:44:39;;;;;;;9.73;3.20;;;;;7.60;100363.00;;;;10405086;28;20554;-82
2024/02/12 16:49:40;;;;;;;10.60;3.50;;;;;7.60;100377.00;;;;10387604;28;20218;-85
2024/02/12 16:54:42;;;;;;;8.93;3.03;;;;;7.40;100375.00;;;;10387312;28;20230;-86
2024/02/12 16:59:47;;;;;;;10.33;3.73;;;;;7.30;100382.00;;;;10393538;28;20222;-84
2024/02/12 17:04:55;;;;;;;9.70;3.60;;;;;7.20;100395.00;;;;10428739;28;20224;-86
2024/02/12 17:09:57;;;;;;;6.70;3.23;;;;;7.20;100413.00;;;;10410135;28;20222;-86
2024/02/12 17:14:59;;;;;;;6.53;2.83;;;;;7.10;100421.00;;;;10415072;28;20245;-76
2024/02/12 17:20:00;;;;;;;16.50;3.73;;;;;7.10;100434.00;;;;10374373;28;20248;-78
2024/02/12 17:25:06;;;;;;;10.53;3.90;;;;;7.10;100444.00;;;;10377369;28;20278;-77
2024/02/12 17:30:10;;;;;;;7.57;3.67;;;;;6.90;100448.00;;;;10381229;28;20219;-76
2024/02/12 17:35:32;;;;;;;7.47;3.47;;;;;6.70;100448.00;;;;10392395;28;20296;-76
2024/02/12 17:40:33;;;;;;;10.70;4.07;;;;;6.60;100469.00;;;;10384139;28;20611;-76
2024/02/12 17:45:43;;;;;;;7.30;4.10;;;;;6.40;100490.00;;;;10398503;28;20230;-76
2024/02/12 17:50:44;;;;;;;10.73;4.30;;;;;6.20;100481.00;;;;10402469;28;20222;-77
2024/02/12 17:55:45;;;;;;;11.67;3.63;;;;;6.10;100503.00;;;;10401225;28;20214;-76
2024/02/12 18:00:48;;;;;;;10.17;4.20;;;;;6.10;100514.00;;;;10387964;28;20233;-75
2024/02/12 18:05:49;;;;;;;13.27;4.73;;;;;6.00;100515.00;;;;10393815;28;20257;-75
2024/02/12 18:10:50;;;;;;;7.23;4.63;;;;;5.90;100525.00;;;;10376315;28;20225;-76
2024/02/12 18:15:51;;;;;;;13.47;5.37;;;;;5.90;100527.00;;;;10416149;28;20852;-78
2024/02/12 18:20:52;;;;;;;14.83;5.73;;;;;6.00;100523.00;;;;10392549;28;20227;-76
2024/02/12 18:25:57;;;;;;;12.03;5.50;;;;;5.90;100530.00;;;;10401525;28;20225;-76
2024/02/12 18:30:58;;;;;;;9.63;5.60;;;;;5.90;100550.00;;;;10397395;28;20309;-76
2024/02/12 18:35:59;;;;;;;12.73;5.60;;;;;5.70;100554.00;;;;10403230;28;20291;-85
2024/02/12 18:41:02;;;;;;;9.30;5.27;;;;;5.60;100556.00;;;;10378286;28;20206;-87
2024/02/12 18:46:04;;;;;;;10.83;5.03;;;;;5.60;100567.00;;;;10392910;28;20825;-88
2024/02/12 18:51:05;;;;;;;12.03;5.03;;;;;5.40;100578.00;;;;10381433;28;20280;-88
2024/02/12 18:56:08;;;;;;;10.37;6.33;;;;;5.40;100586.00;;;;10384143;28;20279;-88
2024/02/12 19:01:11;;;;;;;10.97;5.30;;;;;5.40;100581.00;;;;10373076;28;20297;-85
2024/02/12 19:06:16;;;;;;;7.93;4.57;;;;;5.40;100602.00;;;;10394869;28;20226;-85
2024/02/12 19:11:21;;;;;;;9.03;4.23;;;;;5.40;100614.00;;;;10372577;28;20222;-87
2024/02/12 19:16:24;;;;;;;10.27;4.60;;;;;5.40;100609.00;;;;10393854;28;20747;-87
2024/02/12 19:21:25;;;;;;;9.00;4.70;;;;;5.30;100614.00;;;;10383802;28;20225;-87
2024/02/12 19:26:26;;;;;;;9.67;4.33;;;;;5.20;100615.00;;;;10379900;28;20206;-87
2024/02/12 19:31:29;;;;;;;12.83;5.03;;;;;5.10;100628.00;;;;10385401;28;20219;-82
2024/02/12 19:36:30;;;;;;;9.40;4.77;;;;;5.10;100622.00;;;;10372247;28;20229;-86
2024/02/12 19:41:33;;;;;;;7.17;4.27;;;;;5.00;100634.00;;;;10395765;28;20659;-88
2024/02/12 19:46:34;;;;;;;6.53;4.17;;;;;4.90;100638.00;;;;10418999;28;20202;-80
2024/02/12 19:51:36;;;;;;;12.43;4.77;;;;;4.70;100644.00;;;;10415794;28;20229;-80
2024/02/12 19:56:37;;;;;;;7.87;4.17;;;;;4.60;100651.00;;;;10385136;28;20740;-79
2024/02/12 20:01:39;;;;;;;14.00;8.07;;;;;4.50;100652.00;;;;10393968;28;22227;-79
2024/02/12 20:06:40;;;;;;;12.17;7.07;;;;;4.40;100664.00;;;;10385142;28;20250;-79
2024/02/12 20:11:41;;;;;;;6.83;4.67;;;;;4.30;100664.00;;;;10375914;28;20225;-80
2024/02/12 20:16:43;;;;;;;11.37;4.20;;;;;4.20;100683.00;;;;10394030;28;20638;-79
2024/02/12 20:21:44;;;;;;;7.27;4.13;;;;;4.10;100676.00;;;;10400915;28;20304;-78
2024/02/12 20:26:45;;;;;;;9.23;4.47;;;;;4.10;100688.00;;;;10382390;28;20222;-79
2024/02/12 20:31:56;;;;;;;13.53;5.27;;;;;4.10;100700.00;;;;10408077;28;20789;-79
2024/02/12 20:36:57;;;;;;;12.53;6.07;;;;;4.10;100698.00;;;;10392430;28;20237;-80
2024/02/12 20:42:00;;;;;;;10.23;5.50;;;;;4.00;100701.00;;;;10378358;28;20699;-79
2024/02/12 20:47:04;;;;;;;14.43;6.50;;;;;4.00;100700.00;;;;10359678;28;20266;-79
2024/02/12 20:52:07;;;;;;;12.17;6.53;;;;;3.90;100708.00;;;;10365787;28;20283;-79
2024/02/12 20:57:09;;;;;;;11.40;5.60;;;;;3.90;100707.00;;;;10357580;28;20324;-86
2024/02/12 21:02:10;;;;;;;15.60;8.97;;;;;3.90;100717.00;;;;10377516;28;20287;-85
2024/02/12 21:07:12;;;;;;;25.90;10.67;;;;;3.80;100718.00;;;;10383004;28;20229;-82
2024/02/12 21:12:13;;;;;;;13.20;7.10;;;;;3.80;100724.00;;;;10375224;28;20218;-84
2024/02/12 21:17:14;;;;;;;13.90;6.77;;;;;3.70;100733.00;;;;10398796;28;20260;-81
2024/02/12 21:22:15;;;;;;;13.37;6.00;;;;;3.70;100738.00;;;;10404660;28;20236;-80
2024/02/12 21:27:17;;;;;;;10.90;5.60;;;;;3.60;100744.00;;;;10404199;28;20223;-84
2024/02/12 21:32:19;;;;;;;10.73;5.77;;;;;3.60;100749.00;;;;10412925;28;20295;-85
2024/02/12 21:37:20;;;;;;;10.83;5.13;;;;;3.60;100749.00;;;;10379823;28;20244;-86
2024/02/12 21:42:26;;;;;;;14.70;6.13;;;;;3.70;100757.00;;;;10412041;28;20307;-87
2024/02/12 21:47:27;;;;;;;14.27;6.53;;;;;3.70;100760.00;;;;10378860;28;20283;-81
2024/02/12 21:52:29;;;;;;;13.97;8.43;;;;;3.70;100762.00;;;;10397821;28;20222;-85
2024/02/12 21:57:31;;;;;;;13.10;7.47;;;;;3.70;100775.00;;;;10371440;28;20357;-83
2024/02/12 22:02:32;;;;;;;16.53;8.47;;;;;3.80;100783.00;;;;10373032;28;20215;-85
2024/02/12 22:07:33;;;;;;;16.13;8.63;;;;;3.80;100783.00;;;;10375689;28;20235;-85
2024/02/12 22:12:35;;;;;;;11.43;8.43;;;;;3.80;100782.00;;;;10373249;28;20625;-84
2024/02/12 22:17:38;;;;;;;13.60;8.77;;;;;3.90;100797.00;;;;10366661;28;20222;-85
2024/02/12 22:22:39;;;;;;;18.50;8.93;;;;;3.80;100798.00;;;;10413402;28;20242;-84
2024/02/12 22:27:40;;;;;;;18.27;9.27;;;;;3.80;100807.00;;;;10434256;28;20226;-86
2024/02/12 22:32:43;;;;;;;15.20;8.80;;;;;3.70;100814.00;;;;10372113;28;20229;-86
2024/02/12 22:37:45;;;;;;;19.43;9.60;;;;;3.60;100826.00;;;;10350654;28;20223;-86
2024/02/12 22:42:46;;;;;;;15.67;8.57;;;;;3.50;100822.00;;;;10355059;28;20249;-86
2024/02/12 22:47:47;;;;;;;16.27;8.67;;;;;3.40;100830.00;;;;10376033;28;20235;-86
2024/02/12 22:52:49;;;;;;;15.83;7.93;;;;;3.40;100838.00;;;;10356189;28;20233;-86
2024/02/12 22:57:51;;;;;;;13.10;8.23;;;;;3.30;100831.00;;;;10347689;28;20238;-85
2024/02/12 23:02:54;;;;;;;16.30;8.40;;;;;3.40;100845.00;;;;10370652;28;20226;-83
2024/02/12 23:07:57;;;;;;;15.27;8.40;;;;;3.50;100852.00;;;;10370602;28;20694;-86
2024/02/12 23:12:59;;;;;;;16.40;8.20;;;;;3.60;100852.00;;;;10375926;28;20242;-83
2024/02/12 23:18:02;;;;;;;13.40;6.60;;;;;3.60;100851.00;;;;10372364;28;20838;-79
2024/02/12 23:23:04;;;;;;;12.13;7.00;;;;;3.70;100860.00;;;;10362720;28;20222;-79
2024/02/12 23:28:05;;;;;;;14.77;7.17;;;;;3.80;100870.00;;;;10373969;28;20363;-79
2024/02/12 23:33:07;;;;;;;10.50;6.90;;;;;3.80;100877.00;;;;10380066;28;20318;-79
2024/02/12 23:38:08;;;;;;;23.77;7.20;;;;;3.70;100881.00;;;;10363011;28;20226;-77
2024/02/12 23:43:11;;;;;;;13.27;7.33;;;;;3.60;100888.00;;;;10360333;28;20222;-77
2024/02/12 23:48:14;;;;;;;13.20;6.63;;;;;3.50;100900.00;;;;10374552;28;20308;-79
2024/02/12 23:53:16;;;;;;;15.10;7.00;;;;;3.50;100909.00;;;;10348434;28;20309;-78
2024/02/12 23:58:19;;;;;;;9.83;6.03;;;;;3.50;100905.00;;;;10353372;28;20229;-77
